Time;durP1;ratioP1;P1;durP2;ratioP2;P2;SDS_P1;SDS_P2;PMS_P1;PMS_P2;Temp;Humidity;BMP_temperature;BMP_pressure;BME280_temperature;BME280_humidity;BME280_pressure;Samples;Min_cycle;Max_cycle;Signal;HPM_P1;HPM_P2
2023/11/23 00:00:44;;;;;;;13.55;9.10;;;;;;;3.68;86.76;99207.16;4184195;28;20228;-89
2023/11/23 00:02:49;;;;;;;13.00;8.90;;;;;;;3.68;87.38;99223.47;4169444;28;20226;-89
2023/11/23 00:04:53;;;;;;;12.85;9.48;;;;;;;3.65;87.01;99225.28;4186953;28;20195;-89
2023/11/23 00:06:56;;;;;;;17.80;11.38;;;;;;;3.62;87.02;99225.38;4185545;28;20233;-90
2023/11/23 00:08:59;;;;;;;15.80;10.85;;;;;;;3.59;88.37;99240.91;4185247;28;20612;-89
2023/11/23 00:11:02;;;;;;;17.35;11.35;;;;;;;3.54;87.73;99233.28;4184700;28;20210;-90
2023/11/23 00:13:05;;;;;;;20.40;12.18;;;;;;;3.50;88.44;99223.94;4181400;28;20213;-90
2023/11/23 00:15:10;;;;;;;19.98;10.40;;;;;;;3.47;87.85;99210.25;4183713;28;20208;-89
2023/11/23 00:17:15;;;;;;;12.90;8.10;;;;;;;3.45;88.07;99194.81;4187782;28;20213;-90
2023/11/23 00:19:19;;;;;;;10.35;7.20;;;;;;;3.40;88.02;99188.06;4188874;28;20656;-90
2023/11/23 00:21:22;;;;;;;12.40;8.18;;;;;;;3.36;88.80;99187.28;4171415;28;20700;-89
2023/11/23 00:23:25;;;;;;;11.73;8.82;;;;;;;3.40;88.27;99195.81;4187132;28;20593;-89
2023/11/23 00:25:27;;;;;;;14.73;8.95;;;;;;;3.42;87.85;99192.28;4187037;28;20257;-90
2023/11/23 00:27:31;;;;;;;17.60;10.20;;;;;;;3.44;87.57;99200.88;4167574;28;20233;-90
2023/11/23 00:29:34;;;;;;;16.70;10.98;;;;;;;3.43;87.52;99196.59;4186091;28;20699;-89
2023/11/23 00:31:36;;;;;;;19.85;11.07;;;;;;;3.45;87.92;99197.38;4181977;28;20245;-89
2023/11/23 00:33:39;;;;;;;23.58;12.25;;;;;;;3.44;87.91;99200.88;4190382;28;20232;-90
2023/11/23 00:35:44;;;;;;;18.45;11.60;;;;;;;3.47;88.31;99200.78;4185652;28;20649;-89
2023/11/23 00:37:47;;;;;;;19.88;11.48;;;;;;;3.47;88.67;99200.78;4169397;28;20206;-89
2023/11/23 00:39:50;;;;;;;17.75;10.65;;;;;;;3.43;89.35;99186.28;4169536;28;20206;-90
2023/11/23 00:41:53;;;;;;;17.52;10.40;;;;;;;3.43;89.54;99199.16;4189878;28;20255;-90
2023/11/23 00:43:56;;;;;;;19.67;11.57;;;;;;;3.42;89.77;99204.34;4187656;28;20240;-88
2023/11/23 00:46:00;;;;;;;17.80;10.23;;;;;;;3.42;89.54;99197.44;4187081;28;20695;-87
2023/11/23 00:48:03;;;;;;;15.38;10.05;;;;;;;3.41;89.45;99195.78;4183407;28;20712;-87
2023/11/23 00:50:07;;;;;;;15.23;9.98;;;;;;;3.42;89.14;99184.56;4171958;28;20209;-87
2023/11/23 00:52:12;;;;;;;12.80;8.30;;;;;;;3.38;89.00;99185.53;4172566;28;20213;-88
2023/11/23 00:54:15;;;;;;;13.40;9.20;;;;;;;3.39;89.36;99188.94;4173851;28;20288;-87
2023/11/23 00:56:19;;;;;;;17.13;10.90;;;;;;;3.39;90.04;99187.22;4174720;28;20202;-87
2023/11/23 00:58:22;;;;;;;13.45;9.15;;;;;;;3.40;90.35;99194.06;4193263;28;20223;-87
2023/11/23 01:00:25;;;;;;;14.48;8.85;;;;;;;3.40;90.02;99195.81;4191926;28;20214;-87
2023/11/23 01:02:28;;;;;;;13.23;8.50;;;;;;;3.39;89.83;99197.53;4175793;28;20210;-87
2023/11/23 01:04:31;;;;;;;13.00;8.32;;;;;;;3.41;90.15;99187.19;4172244;28;20202;-87
2023/11/23 01:06:35;;;;;;;13.52;8.32;;;;;;;3.41;89.92;99200.06;4192734;28;20468;-87
2023/11/23 01:08:39;;;;;;;13.27;9.13;;;;;;;3.43;89.48;99194.00;4188271;28;20268;-88
2023/11/23 01:10:43;;;;;;;11.95;8.23;;;;;;;3.41;90.48;99190.63;4194485;28;20675;-87
2023/11/23 01:12:46;;;;;;;16.30;8.93;;;;;;;3.42;90.11;99192.28;4172790;28;20202;-88
2023/11/23 01:14:50;;;;;;;12.55;8.90;;;;;;;3.45;89.98;99199.13;4169510;28;20207;-87
2023/11/23 01:16:53;;;;;;;12.77;8.77;;;;;;;3.46;90.27;99209.41;4188037;28;20209;-87
2023/11/23 01:18:56;;;;;;;15.25;8.80;;;;;;;3.46;90.10;99201.66;4191959;28;20679;-87
2023/11/23 01:20:59;;;;;;;15.07;8.48;;;;;;;3.46;90.07;99216.31;4183942;28;20205;-87
2023/11/23 01:23:02;;;;;;;13.32;8.82;;;;;;;3.41;89.97;99215.53;4183909;28;20283;-89
2023/11/23 01:25:08;;;;;;;13.48;8.90;;;;;;;3.38;89.90;99213.88;4184592;28;20202;-90
2023/11/23 01:27:12;;;;;;;14.43;9.50;;;;;;;3.36;90.51;99207.91;4202172;28;20247;-89
2023/11/23 01:29:15;;;;;;;12.93;9.02;;;;;;;3.36;90.38;99205.31;4172193;28;20296;-90
2023/11/23 01:31:18;;;;;;;12.88;8.98;;;;;;;3.36;90.01;99202.75;4189246;28;20272;-89
2023/11/23 01:33:22;;;;;;;12.93;8.80;;;;;;;3.34;90.62;99191.63;4182628;28;20670;-90
2023/11/23 01:35:26;;;;;;;13.40;9.55;;;;;;;3.33;90.17;99189.09;4186404;28;20305;-89
2023/11/23 01:37:29;;;;;;;16.00;9.40;;;;;;;3.32;90.47;99195.97;4175356;28;20628;-89
2023/11/23 01:39:32;;;;;;;15.35;9.93;;;;;;;3.36;89.71;99196.75;4187395;28;20255;-87
2023/11/23 01:41:37;;;;;;;12.55;8.82;;;;;;;3.39;89.99;99196.69;4190797;28;20694;-87
2023/11/23 01:43:40;;;;;;;15.80;8.98;;;;;;;3.42;90.10;99196.63;4187365;28;20253;-86
2023/11/23 01:45:43;;;;;;;13.10;9.13;;;;;;;3.43;90.02;99194.00;4184150;28;20209;-87
2023/11/23 01:47:47;;;;;;;15.68;9.30;;;;;;;3.43;89.81;99191.44;4188581;28;20217;-87
2023/11/23 01:49:51;;;;;;;16.30;9.68;;;;;;;3.41;89.91;99188.03;4176100;28;20700;-87
2023/11/23 01:51:55;;;;;;;15.30;9.27;;;;;;;3.36;89.89;99178.72;4173209;28;20245;-87
2023/11/23 01:53:58;;;;;;;16.42;8.95;;;;;;;3.32;89.86;99161.59;4196344;28;20197;-87
2023/11/23 01:56:02;;;;;;;15.52;9.20;;;;;;;3.26;89.60;99164.31;4204031;28;20228;-87
2023/11/23 01:58:09;;;;;;;15.57;9.75;;;;;;;3.21;89.24;99166.16;4189133;28;20209;-87
2023/11/23 02:00:13;;;;;;;15.18;10.15;;;;;;;3.20;89.55;99151.56;4173340;28;20667;-87
2023/11/23 02:02:16;;;;;;;16.98;10.48;;;;;;;3.19;89.81;99155.06;4201830;28;20205;-87
2023/11/23 02:04:20;;;;;;;16.73;10.68;;;;;;;3.24;90.07;99150.63;4186243;28;20289;-90
2023/11/23 02:06:23;;;;;;;18.27;10.65;;;;;;;3.23;89.20;99150.66;4174221;28;20210;-90
2023/11/23 02:08:27;;;;;;;15.77;10.48;;;;;;;3.23;89.56;99148.94;4171425;28;20207;-90
2023/11/23 02:10:30;;;;;;;15.68;10.60;;;;;;;3.28;89.30;99140.22;4185966;28;20202;-89
2023/11/23 02:12:33;;;;;;;22.83;11.20;;;;;;;3.26;89.21;99138.56;4187578;28;20244;-90
2023/11/23 02:14:38;;;;;;;15.98;10.60;;;;;;;3.21;89.51;99139.56;4170924;28;20216;-90
2023/11/23 02:16:41;;;;;;;16.02;11.00;;;;;;;3.23;89.40;99135.22;4184917;28;20210;-89
2023/11/23 02:18:44;;;;;;;15.40;10.10;;;;;;;3.25;89.74;99146.31;4190791;28;20214;-90
2023/11/23 02:20:47;;;;;;;17.40;11.48;;;;;;;3.31;89.86;99145.31;4184385;28;20201;-90
2023/11/23 02:22:50;;;;;;;15.40;10.30;;;;;;;3.31;89.86;99136.75;4171367;28;20260;-89
2023/11/23 02:24:55;;;;;;;15.82;11.68;;;;;;;3.28;89.81;99137.66;4170946;28;20252;-89
2023/11/23 02:26:58;;;;;;;15.82;10.70;;;;;;;3.32;89.23;99141.84;4190458;28;20236;-89
2023/11/23 02:29:01;;;;;;;17.52;11.60;;;;;;;3.35;89.58;99135.75;4183272;28;20206;-89
2023/11/23 02:31:04;;;;;;;17.08;11.38;;;;;;;3.37;89.12;99129.69;4188836;28;20680;-89
2023/11/23 02:33:09;;;;;;;16.42;11.15;;;;;;;3.42;89.10;99140.75;4186317;28;20263;-89
2023/11/23 02:35:12;;;;;;;17.13;11.65;;;;;;;3.48;89.66;99139.75;4172684;28;20297;-90
2023/11/23 02:37:16;;;;;;;16.15;11.32;;;;;;;3.55;89.44;99139.59;4187421;28;20202;-89
2023/11/23 02:39:19;;;;;;;18.05;11.73;;;;;;;3.56;89.79;99132.69;4188430;28;20207;-90
2023/11/23 02:41:24;;;;;;;16.40;11.48;;;;;;;3.59;88.68;99138.59;4175712;28;20218;-89
2023/11/23 02:43:27;;;;;;;21.40;12.57;;;;;;;3.64;88.56;99136.78;4202084;28;20208;-90
2023/11/23 02:45:30;;;;;;;15.73;11.05;;;;;;;3.65;87.87;99138.44;4172316;28;20210;-89
2023/11/23 02:47:33;;;;;;;16.33;11.98;;;;;;;3.66;88.58;99153.06;4184892;28;20198;-90
2023/11/23 02:49:36;;;;;;;17.08;10.90;;;;;;;3.62;88.82;99140.28;4192274;28;20229;-89
2023/11/23 02:51:39;;;;;;;13.70;9.70;;;;;;;3.61;89.64;99144.59;4189384;28;20265;-89
2023/11/23 02:53:44;;;;;;;16.15;9.73;;;;;;;3.57;89.25;99148.13;4168506;28;20209;-90
2023/11/23 02:55:47;;;;;;;14.57;10.10;;;;;;;3.52;89.08;99143.94;4188357;28;20206;-89
2023/11/23 02:57:52;;;;;;;15.77;11.30;;;;;;;3.49;88.97;99150.03;4181326;28;20232;-90
2023/11/23 02:59:55;;;;;;;18.15;10.95;;;;;;;3.50;89.59;99150.88;4191385;28;20213;-89
2023/11/23 03:01:58;;;;;;;18.02;12.75;;;;;;;3.50;88.55;99158.59;4182969;28;20217;-89
2023/11/23 03:04:00;;;;;;;20.27;12.57;;;;;;;3.52;88.44;99165.44;4185593;28;20321;-89
2023/11/23 03:06:04;;;;;;;17.50;11.25;;;;;;;3.52;87.93;99162.84;4188081;28;20587;-89
2023/11/23 03:08:07;;;;;;;17.50;11.70;;;;;;;3.52;88.67;99162.00;4172992;28;20218;-89
2023/11/23 03:10:11;;;;;;;19.40;11.88;;;;;;;3.49;88.24;99154.34;4184947;28;20220;-89
2023/11/23 03:12:13;;;;;;;18.70;11.77;;;;;;;3.48;89.24;99153.50;4187128;28;20235;-89
2023/11/23 03:14:18;;;;;;;21.30;11.75;;;;;;;3.48;89.18;99150.06;4191484;28;20389;-89
2023/11/23 03:16:21;;;;;;;15.25;10.77;;;;;;;3.46;88.62;99141.53;4184789;28;20206;-89
2023/11/23 03:18:25;;;;;;;14.95;10.93;;;;;;;3.40;89.06;99139.94;4187320;28;20262;-90
2023/11/23 03:20:28;;;;;;;14.25;10.10;;;;;;;3.38;89.74;99134.00;4191681;28;20251;-89
2023/11/23 03:22:32;;;;;;;14.70;9.68;;;;;;;3.38;88.87;99128.84;4173223;28;20607;-89
2023/11/23 03:24:35;;;;;;;14.93;10.02;;;;;;;3.39;89.18;99129.66;4184900;28;20325;-89
2023/11/23 03:26:39;;;;;;;16.83;11.10;;;;;;;3.39;89.52;99135.66;4188144;28;20296;-87
2023/11/23 03:28:42;;;;;;;18.05;11.93;;;;;;;3.43;89.07;99142.44;4186094;28;20212;-87
2023/11/23 03:30:47;;;;;;;14.38;10.70;;;;;;;3.44;89.34;99138.13;4165916;28;20326;-87
2023/11/23 03:32:50;;;;;;;16.85;11.93;;;;;;;3.44;89.23;99141.56;4182191;28;20221;-88
2023/11/23 03:34:53;;;;;;;14.80;10.45;;;;;;;3.41;88.51;99139.06;4172659;28;20212;-87
2023/11/23 03:36:57;;;;;;;20.40;11.25;;;;;;;3.36;88.42;99140.03;4164986;28;20222;-87
2023/11/23 03:38:59;;;;;;;15.63;10.45;;;;;;;3.35;89.16;99156.38;4185722;28;20282;-87
2023/11/23 03:41:04;;;;;;;16.15;11.35;;;;;;;3.33;88.18;99153.84;4187113;28;20218;-87
2023/11/23 03:43:07;;;;;;;17.00;11.45;;;;;;;3.31;88.64;99158.19;4186763;28;20206;-87
2023/11/23 03:45:11;;;;;;;18.10;11.13;;;;;;;3.30;88.95;99163.38;4187370;28;20217;-87
2023/11/23 03:47:15;;;;;;;18.67;11.55;;;;;;;3.27;88.41;99161.72;4170342;28;20202;-87
2023/11/23 03:49:19;;;;;;;16.23;11.27;;;;;;;3.25;88.84;99152.34;4185647;28;20195;-87
2023/11/23 03:51:22;;;;;;;17.08;11.73;;;;;;;3.21;88.86;99140.41;4187348;28;20214;-87
2023/11/23 03:53:25;;;;;;;16.58;11.13;;;;;;;3.19;89.23;99143.88;4171106;28;20750;-87
2023/11/23 03:55:28;;;;;;;17.35;11.40;;;;;;;3.19;89.15;99143.88;4184254;28;20897;-87
2023/11/23 03:57:31;;;;;;;16.55;11.07;;;;;;;3.17;89.25;99140.50;4169573;28;20212;-87
2023/11/23 03:59:34;;;;;;;16.70;11.02;;;;;;;3.19;88.83;99141.31;4187761;28;20205;-90
2023/11/23 04:01:44;;;;;;;15.13;10.93;;;;;;;3.17;89.15;99137.91;4189003;28;20232;-89
2023/11/23 04:03:49;;;;;;;17.95;10.70;;;;;;;3.17;89.54;99127.63;4184698;28;20214;-89
2023/11/23 04:05:52;;;;;;;16.15;10.60;;;;;;;3.16;89.71;99131.94;4183867;28;20265;-89
2023/11/23 04:07:55;;;;;;;17.58;11.93;;;;;;;3.13;89.41;99125.97;4183586;28;20575;-88
2023/11/23 04:09:58;;;;;;;18.85;11.60;;;;;;;3.14;89.18;99140.56;4186124;28;20691;-89
2023/11/23 04:12:01;;;;;;;20.77;12.93;;;;;;;3.12;89.09;99134.63;4186994;28;20213;-87
2023/11/23 04:14:05;;;;;;;20.08;12.32;;;;;;;3.11;89.63;99138.94;4185120;28;20562;-87
2023/11/23 04:16:09;;;;;;;17.80;12.18;;;;;;;3.11;89.79;99132.91;4187929;28;20280;-87
2023/11/23 04:18:14;;;;;;;18.27;12.15;;;;;;;3.10;89.49;99128.66;4190368;28;20209;-87
2023/11/23 04:20:19;;;;;;;17.52;11.35;;;;;;;3.05;88.85;99130.47;4191392;28;20198;-87
2023/11/23 04:22:22;;;;;;;17.52;10.90;;;;;;;3.03;88.91;99134.81;4190933;28;20247;-87
2023/11/23 04:24:25;;;;;;;18.65;11.60;;;;;;;3.00;89.41;99133.13;4169567;28;20202;-86
2023/11/23 04:26:28;;;;;;;20.02;11.10;;;;;;;3.01;89.45;99134.00;4191760;28;20205;-87
2023/11/23 04:28:31;;;;;;;18.15;12.30;;;;;;;3.01;89.13;99141.75;4190694;28;20205;-87
2023/11/23 04:30:34;;;;;;;21.35;11.15;;;;;;;3.00;89.39;99130.56;4190312;28;20213;-88
2023/11/23 04:32:38;;;;;;;17.25;11.25;;;;;;;3.00;89.80;99129.72;4193865;28;20210;-87
2023/11/23 04:34:40;;;;;;;18.17;11.65;;;;;;;3.04;89.00;99131.38;4173922;28;20218;-88
2023/11/23 04:36:44;;;;;;;16.42;11.20;;;;;;;3.07;89.14;99131.31;4186720;28;20218;-88
2023/11/23 04:38:48;;;;;;;16.05;10.60;;;;;;;3.06;88.86;99111.56;4190698;28;20292;-88
2023/11/23 04:40:51;;;;;;;18.85;12.38;;;;;;;3.03;88.89;99114.22;4190989;28;20229;-87
2023/11/23 04:42:55;;;;;;;16.02;10.90;;;;;;;2.99;88.71;99113.44;4191026;28;20332;-88
2023/11/23 04:44:58;;;;;;;17.02;11.18;;;;;;;2.96;88.47;99115.22;4190834;28;20308;-88
2023/11/23 04:47:01;;;;;;;19.88;12.98;;;;;;;2.92;88.53;99111.88;4188475;28;20206;-87
2023/11/23 04:49:04;;;;;;;17.17;11.80;;;;;;;2.90;89.04;99117.91;4190376;28;20202;-87
2023/11/23 04:51:07;;;;;;;16.17;10.90;;;;;;;2.91;88.95;99106.75;4192557;28;20228;-87
2023/11/23 04:53:12;;;;;;;16.15;10.95;;;;;;;2.86;89.02;99106.00;4187749;28;20205;-87
2023/11/23 04:55:15;;;;;;;15.73;10.80;;;;;;;2.79;89.45;99104.44;4193881;28;20293;-90
2023/11/23 04:57:18;;;;;;;17.08;10.77;;;;;;;2.76;89.05;99101.94;4172584;28;20217;-90
2023/11/23 04:59:22;;;;;;;15.38;10.38;;;;;;;2.77;89.32;99106.22;4193480;28;20210;-90
2023/11/23 05:01:25;;;;;;;18.35;11.10;;;;;;;2.76;89.14;99101.09;4184673;28;20630;-89
2023/11/23 05:03:29;;;;;;;16.77;11.00;;;;;;;2.73;89.19;99102.00;4186815;28;20198;-87
2023/11/23 05:05:33;;;;;;;16.30;10.10;;;;;;;2.70;89.23;99093.50;4191315;28;20229;-87
2023/11/23 05:07:38;;;;;;;14.60;9.93;;;;;;;2.69;88.84;99100.38;4188847;28;20206;-87
2023/11/23 05:09:42;;;;;;;14.25;9.70;;;;;;;2.65;89.10;99091.03;4187816;28;20212;-87
2023/11/23 05:11:46;;;;;;;15.25;9.88;;;;;;;2.61;89.54;99080.81;4185674;28;20202;-87
2023/11/23 05:13:49;;;;;;;14.55;10.10;;;;;;;2.61;89.34;99083.41;4181559;28;20206;-92
2023/11/23 05:15:52;;;;;;;19.63;11.73;;;;;;;2.64;89.60;99089.31;4185810;28;20209;-89
2023/11/23 05:17:55;;;;;;;16.67;12.10;;;;;;;2.62;89.20;99083.38;4185669;28;20223;-89
2023/11/23 05:19:58;;;;;;;16.02;11.25;;;;;;;2.61;89.96;99084.22;4187120;28;20227;-88
2023/11/23 05:22:02;;;;;;;18.17;10.52;;;;;;;2.66;89.54;99097.00;4186423;28;20205;-89
2023/11/23 05:24:06;;;;;;;14.23;9.38;;;;;;;2.64;89.44;99091.06;4189212;28;20197;-89
2023/11/23 05:26:10;;;;;;;18.98;11.63;;;;;;;2.61;89.89;99097.09;4186750;28;20217;-88
2023/11/23 05:28:14;;;;;;;16.95;10.70;;;;;;;2.60;89.87;99094.56;4187057;28;20206;-88
2023/11/23 05:30:17;;;;;;;16.30;10.48;;;;;;;2.58;89.97;99094.59;4175137;28;20210;-88
2023/11/23 05:32:21;;;;;;;16.90;10.50;;;;;;;2.56;90.09;99095.53;4186050;28;20225;-89
2023/11/23 05:34:24;;;;;;;15.88;10.48;;;;;;;2.54;89.89;99095.56;4188051;28;20217;-88
2023/11/23 05:36:26;;;;;;;14.50;10.13;;;;;;;2.54;90.13;99097.25;4182002;28;20202;-88
2023/11/23 05:38:30;;;;;;;17.95;10.85;;;;;;;2.53;89.91;99113.59;4165892;28;20292;-88
2023/11/23 05:40:33;;;;;;;20.27;11.93;;;;;;;2.56;89.58;99110.97;4185650;28;20746;-89
2023/11/23 05:42:39;;;;;;;23.02;14.45;;;;;;;2.56;89.60;99116.13;4184006;28;20197;-88
2023/11/23 05:44:49;;;;;;;18.58;12.18;;;;;;;2.55;90.35;99115.25;4178891;28;20202;-89
2023/11/23 05:46:52;;;;;;;19.27;11.52;;;;;;;2.56;89.75;99123.84;4187285;28;20217;-88
2023/11/23 05:48:55;;;;;;;21.23;12.70;;;;;;;2.54;89.63;99131.59;4187108;28;20210;-89
2023/11/23 05:50:58;;;;;;;15.30;10.90;;;;;;;2.52;89.23;99130.75;4182784;28;20210;-88
2023/11/23 05:53:01;;;;;;;18.80;10.95;;;;;;;2.49;89.69;99127.41;4173105;28;20208;-87
2023/11/23 05:55:05;;;;;;;17.75;11.13;;;;;;;2.48;89.82;99130.84;4185058;28;20213;-88
2023/11/23 05:57:08;;;;;;;16.63;10.57;;;;;;;2.44;89.28;99130.06;4186292;28;20657;-88
2023/11/23 05:59:13;;;;;;;18.70;11.70;;;;;;;2.43;89.31;99128.34;4189036;28;20255;-88
2023/11/23 06:01:16;;;;;;;16.85;11.82;;;;;;;2.42;89.62;99128.38;4186660;28;20293;-88
2023/11/23 06:03:20;;;;;;;17.05;10.65;;;;;;;2.41;89.67;99127.56;4185933;28;20203;-88
2023/11/23 06:05:27;;;;;;;19.20;11.82;;;;;;;2.45;90.09;99126.63;4186476;28;20271;-88
2023/11/23 06:07:30;;;;;;;18.08;11.52;;;;;;;2.44;90.16;99122.34;4186576;28;20237;-88
2023/11/23 06:09:33;;;;;;;18.38;11.75;;;;;;;2.45;89.80;99129.19;4174800;28;20654;-88
2023/11/23 06:11:36;;;;;;;18.52;12.55;;;;;;;2.41;89.50;99132.69;4174071;28;20210;-88
2023/11/23 06:13:39;;;;;;;22.85;13.40;;;;;;;2.40;89.50;99128.41;4172783;28;20316;-89
2023/11/23 06:15:43;;;;;;;21.27;12.13;;;;;;;2.43;89.79;99130.09;4185294;28;20233;-88
2023/11/23 06:17:46;;;;;;;21.50;13.45;;;;;;;2.43;90.06;99130.94;4199278;28;20212;-89
2023/11/23 06:19:51;;;;;;;19.38;11.80;;;;;;;2.41;90.21;99130.13;4187362;28;20293;-88
2023/11/23 06:21:53;;;;;;;20.52;11.73;;;;;;;2.46;90.52;99130.88;4185502;28;20206;-89
2023/11/23 06:23:56;;;;;;;18.42;11.18;;;;;;;2.46;90.56;99128.28;4185537;28;20209;-88
2023/11/23 06:26:00;;;;;;;17.15;10.45;;;;;;;2.46;90.47;99124.88;4186710;28;20597;-88
2023/11/23 06:28:03;;;;;;;19.85;11.70;;;;;;;2.48;90.52;99128.28;4169714;28;20243;-88
2023/11/23 06:30:18;;;;;;;15.75;10.63;;;;;;;2.56;90.76;99129.00;4184893;28;20206;-88
2023/11/23 06:32:23;;;;;;;18.48;11.90;;;;;;;2.61;91.49;99130.56;4171651;28;20292;-88
2023/11/23 06:34:26;;;;;;;16.20;11.05;;;;;;;2.64;91.91;99138.22;4171861;28;20218;-88
2023/11/23 06:36:29;;;;;;;16.90;11.13;;;;;;;2.67;91.48;99133.00;4169001;28;20285;-88
2023/11/23 06:38:33;;;;;;;19.17;11.52;;;;;;;2.73;91.82;99134.63;4181526;28;20225;-88
2023/11/23 06:40:36;;;;;;;16.25;11.10;;;;;;;2.79;91.53;99129.34;4190442;28;20213;-87
2023/11/23 06:42:40;;;;;;;17.25;10.88;;;;;;;2.83;91.59;99124.94;4187101;28;20200;-88
2023/11/23 06:44:44;;;;;;;16.90;11.38;;;;;;;2.86;91.62;99126.63;4185323;28;20284;-89
2023/11/23 06:46:47;;;;;;;19.42;11.15;;;;;;;2.88;90.80;99125.69;4170693;28;20229;-90
2023/11/23 06:48:52;;;;;;;18.08;10.60;;;;;;;2.92;90.85;99126.47;4171416;28;20647;-89
2023/11/23 06:50:55;;;;;;;17.52;10.63;;;;;;;2.94;90.80;99115.25;4187131;28;20243;-89
2023/11/23 06:52:57;;;;;;;16.00;11.60;;;;;;;2.97;90.71;99117.75;4192058;28;20287;-88
2023/11/23 06:55:01;;;;;;;19.75;12.90;;;;;;;2.98;90.56;99118.63;4188154;28;20251;-89
2023/11/23 06:57:04;;;;;;;18.17;13.00;;;;;;;2.99;90.54;99112.56;4199151;28;20737;-89
2023/11/23 06:59:08;;;;;;;17.77;11.95;;;;;;;2.98;90.52;99121.19;4182907;28;20197;-88
2023/11/23 07:01:11;;;;;;;19.08;10.43;;;;;;;2.95;90.97;99113.53;4186700;28;20289;-88
2023/11/23 07:03:13;;;;;;;18.13;10.88;;;;;;;2.99;90.79;99115.16;4185347;28;20208;-90
2023/11/23 07:05:19;;;;;;;18.40;11.52;;;;;;;3.01;90.12;99108.25;4179233;28;20213;-90
2023/11/23 07:07:22;;;;;;;15.60;10.45;;;;;;;3.01;90.85;99110.81;4170733;28;20226;-89
2023/11/23 07:09:25;;;;;;;17.15;10.13;;;;;;;2.99;90.52;99110.00;4183410;28;21009;-89
2023/11/23 07:11:28;;;;;;;16.70;10.50;;;;;;;2.98;90.07;99110.91;4188706;28;20300;-88
2023/11/23 07:13:32;;;;;;;23.02;13.13;;;;;;;2.98;89.99;99108.31;4188952;28;20238;-89
2023/11/23 07:15:35;;;;;;;45.53;23.88;;;;;;;2.96;89.98;99103.19;4187535;28;20210;-88
2023/11/23 07:17:38;;;;;;;78.40;36.35;;;;;;;2.97;89.92;99109.19;4188720;28;20202;-89
2023/11/23 07:19:42;;;;;;;52.33;27.10;;;;;;;2.98;89.73;99109.16;4187675;28;20212;-89
2023/11/23 07:21:46;;;;;;;42.75;21.77;;;;;;;2.97;89.43;99106.63;4170259;28;20682;-89
2023/11/23 07:23:49;;;;;;;35.92;18.02;;;;;;;2.94;89.15;99107.50;4185490;28;20210;-89
2023/11/23 07:25:53;;;;;;;29.48;17.65;;;;;;;2.94;89.07;99111.84;4186307;28;20216;-89
2023/11/23 07:27:56;;;;;;;33.33;18.35;;;;;;;3.08;88.63;99120.09;4186149;28;20306;-90
2023/11/23 07:29:59;;;;;;;29.23;15.85;;;;;;;3.26;89.17;99115.34;4186701;28;20300;-90
2023/11/23 07:32:02;;;;;;;28.40;14.77;;;;;;;3.42;88.41;99121.88;4186556;28;20676;-88
2023/11/23 07:34:06;;;;;;;25.48;15.68;;;;;;;3.56;88.82;99127.53;4185757;28;20194;-88
2023/11/23 07:36:10;;;;;;;29.33;19.70;;;;;;;3.72;88.06;99124.53;4182846;28;20227;-88
2023/11/23 07:38:14;;;;;;;33.55;22.15;;;;;;;3.91;88.03;99143.81;4182309;28;20255;-88
2023/11/23 07:40:19;;;;;;;32.15;22.00;;;;;;;3.96;87.16;99132.50;4171861;28;20210;-88
2023/11/23 07:42:22;;;;;;;29.63;20.23;;;;;;;3.93;87.70;99134.31;4190996;28;20208;-88
2023/11/23 07:44:25;;;;;;;27.05;16.90;;;;;;;3.92;88.63;99127.47;4185115;28;20871;-89
2023/11/23 07:46:28;;;;;;;26.63;15.65;;;;;;;3.84;88.58;99124.22;4185313;28;20206;-88
2023/11/23 07:48:32;;;;;;;31.63;18.27;;;;;;;3.72;88.45;99117.63;4182941;28;20660;-88
2023/11/23 07:50:36;;;;;;;33.55;20.70;;;;;;;3.66;87.99;99123.84;4186658;28;20300;-88
2023/11/23 07:52:38;;;;;;;33.08;20.45;;;;;;;3.65;88.47;99122.97;4190390;28;20393;-88
2023/11/23 07:54:43;;;;;;;29.08;18.73;;;;;;;3.62;89.35;99128.22;4192041;28;20654;-88
2023/11/23 07:56:47;;;;;;;32.00;20.45;;;;;;;3.66;88.50;99124.69;4194137;28;20253;-88
2023/11/23 07:58:50;;;;;;;28.85;19.25;;;;;;;3.70;89.18;99125.44;4193216;28;20209;-88
2023/11/23 08:00:52;;;;;;;26.92;18.60;;;;;;;3.75;87.80;99127.03;4194664;28;20247;-88
2023/11/23 08:02:55;;;;;;;28.40;18.65;;;;;;;3.77;90.10;99120.97;4176749;28;20200;-88
2023/11/23 08:04:59;;;;;;;25.48;16.65;;;;;;;3.78;89.78;99111.50;4184611;28;20244;-88
2023/11/23 08:07:04;;;;;;;26.90;17.23;;;;;;;3.82;89.49;99115.69;4186939;28;20228;-88
2023/11/23 08:09:07;;;;;;;20.35;14.10;;;;;;;3.88;88.77;99121.53;4189715;28;20293;-88
2023/11/23 08:11:10;;;;;;;19.80;13.00;;;;;;;3.91;88.42;99125.75;4191308;28;20547;-88
2023/11/23 08:13:15;;;;;;;19.40;12.23;;;;;;;3.97;89.84;99120.44;4175008;28;20312;-88
2023/11/23 08:15:19;;;;;;;21.00;12.02;;;;;;;3.97;89.31;99118.72;4196060;28;20240;-88
2023/11/23 08:17:23;;;;;;;19.95;12.15;;;;;;;4.07;89.51;99124.47;4172293;28;20293;-88
2023/11/23 08:19:26;;;;;;;21.70;13.15;;;;;;;4.33;89.65;99134.06;4192911;28;20255;-88
2023/11/23 08:21:28;;;;;;;21.55;14.73;;;;;;;4.66;89.06;99140.91;4192054;28;20209;-88
2023/11/23 08:23:32;;;;;;;20.85;14.40;;;;;;;4.96;89.82;99146.03;4187968;28;20260;-88
2023/11/23 08:25:34;;;;;;;23.73;14.95;;;;;;;5.05;87.80;99142.31;4194450;28;20967;-89
2023/11/23 08:27:39;;;;;;;24.02;14.38;;;;;;;4.97;88.12;99139.94;4186753;28;20252;-88
2023/11/23 08:29:42;;;;;;;20.27;12.55;;;;;;;4.89;87.45;99152.25;4172320;28;20244;-88
2023/11/23 08:31:45;;;;;;;17.95;11.55;;;;;;;4.88;87.25;99141.97;4190122;28;20304;-89
2023/11/23 08:33:48;;;;;;;18.92;11.50;;;;;;;4.90;87.36;99145.34;4182278;28;20214;-88
2023/11/23 08:35:53;;;;;;;16.98;11.90;;;;;;;4.88;87.67;99134.19;4188952;28;20728;-88
2023/11/23 08:37:56;;;;;;;17.83;11.73;;;;;;;4.86;87.43;99130.81;4186463;28;20248;-88
2023/11/23 08:39:59;;;;;;;19.35;12.73;;;;;;;4.87;88.92;99129.91;4173493;28;20770;-88
2023/11/23 08:42:02;;;;;;;18.27;11.98;;;;;;;4.86;89.87;99133.41;4206033;28;20208;-88
2023/11/23 08:44:07;;;;;;;17.60;12.20;;;;;;;4.84;90.68;99130.88;4194786;28;20300;-88
2023/11/23 08:46:10;;;;;;;19.08;12.68;;;;;;;4.87;90.72;99132.50;4190055;28;20301;-88
2023/11/23 08:48:13;;;;;;;16.80;11.68;;;;;;;4.87;90.36;99127.34;4190621;28;20324;-88
2023/11/23 08:50:17;;;;;;;16.92;11.93;;;;;;;4.86;89.37;99125.66;4187958;28;20205;-88
2023/11/23 08:52:21;;;;;;;18.50;12.60;;;;;;;4.85;90.92;99127.38;4188377;28;20627;-88
2023/11/23 08:54:25;;;;;;;16.75;10.95;;;;;;;4.85;91.17;99114.47;4194039;28;20259;-88
2023/11/23 08:56:28;;;;;;;17.27;11.63;;;;;;;4.88;90.04;99108.38;4193818;28;20209;-88
2023/11/23 08:58:31;;;;;;;14.40;9.93;;;;;;;4.92;89.46;99112.56;4188752;28;20241;-89
2023/11/23 09:00:36;;;;;;;13.68;9.15;;;;;;;4.94;88.84;99121.94;4173023;28;20214;-89
2023/11/23 09:02:39;;;;;;;15.98;9.23;;;;;;;5.02;88.49;99121.72;4189331;28;20662;-89
2023/11/23 09:04:43;;;;;;;13.80;9.10;;;;;;;5.06;88.38;99120.75;4188244;28;20205;-88
2023/11/23 09:06:47;;;;;;;14.82;10.30;;;;;;;5.09;87.73;99113.72;4196779;28;20305;-87
2023/11/23 09:08:51;;;;;;;15.23;10.57;;;;;;;5.11;88.08;99109.34;4188133;28;20660;-87
2023/11/23 09:10:55;;;;;;;21.02;14.32;;;;;;;5.15;88.57;99116.97;4185305;28;20291;-87
2023/11/23 09:13:00;;;;;;;18.13;11.38;;;;;;;5.19;89.52;99105.66;4177132;28;20210;-87
2023/11/23 09:15:04;;;;;;;15.75;11.05;;;;;;;5.25;91.13;99109.78;4190238;28;20617;-88
2023/11/23 09:17:08;;;;;;;16.92;11.23;;;;;;;5.28;91.09;99107.94;4191047;28;20201;-87
2023/11/23 09:19:12;;;;;;;16.05;11.15;;;;;;;5.33;90.45;99111.22;4187399;28;20190;-87
2023/11/23 09:21:17;;;;;;;17.77;11.35;;;;;;;5.40;91.04;99107.56;4188432;28;20263;-87
2023/11/23 09:23:20;;;;;;;15.65;11.23;;;;;;;5.42;91.21;99113.53;4188202;28;20210;-87
2023/11/23 09:25:24;;;;;;;19.55;13.32;;;;;;;5.45;90.97;99110.84;4190273;28;20264;-87
2023/11/23 09:27:27;;;;;;;20.42;15.10;;;;;;;5.49;90.21;99109.00;4193145;28;20217;-87
2023/11/23 09:29:31;;;;;;;20.60;14.73;;;;;;;5.52;91.26;99101.13;4174674;28;20218;-87
2023/11/23 09:31:35;;;;;;;21.40;14.00;;;;;;;5.58;90.79;99086.28;4187004;28;20225;-87
2023/11/23 09:33:39;;;;;;;16.23;10.48;;;;;;;5.67;91.67;99088.56;4189875;28;20288;-87
2023/11/23 09:35:43;;;;;;;15.13;10.80;;;;;;;5.72;91.40;99079.75;4191209;28;20210;-87